Weather at Sola Airport [CLOSED]

Public forecast

Using degrees Celsius for public forecast. Weather courtesy of forecast.io.

Closest aviation weather report (METAR) to Sola Airport

Closest report is Ignacio Agramonte International Airport, 19.1 nm (35.3 km) SW. Retrieved 2021/06/21 03:50 UTC (48 minutes ago):

MUCM 210350Z 06007KT 9000 SKC 26/24 Q1020

Closest aviation forecast (TAF) to Sola Airport

Closest forecast is Ignacio Agramonte International Airport, 19.1 nm (35.3 km) SW. Retrieved 2021-06-21 00:15 UTC (4 hours ago):

TAF MUCM 202300Z 2100/2124 04010KT 9000 SCT020 BECMG 2101/2103 05005KT BECMG 2115/2117 07010KT TEMPO 2118/2124 VRB10KT 5000 TSRA SCT018CB BKN020